sensor_id;sensor_type;location;lat;lon;timestamp;P1;durP1;ratioP1;P2;durP2;ratioP2
29370;SDS011;16357;52.188;7.838;2023-06-26T00:00:59;6.50;;;5.75;;
29370;SDS011;16357;52.188;7.838;2023-06-26T00:03:25;6.35;;;5.75;;
29370;SDS011;16357;52.188;7.838;2023-06-26T00:05:52;6.88;;;6.18;;
29370;SDS011;16357;52.188;7.838;2023-06-26T00:08:18;9.20;;;6.10;;
29370;SDS011;16357;52.188;7.838;2023-06-26T00:10:45;6.70;;;6.05;;
29370;SDS011;16357;52.188;7.838;2023-06-26T00:13:12;8.20;;;5.60;;
29370;SDS011;16357;52.188;7.838;2023-06-26T00:15:38;6.03;;;5.43;;
29370;SDS011;16357;52.188;7.838;2023-06-26T00:18:05;6.75;;;6.00;;
29370;SDS011;16357;52.188;7.838;2023-06-26T00:20:32;7.10;;;5.78;;
29370;SDS011;16357;52.188;7.838;2023-06-26T00:23:00;6.30;;;5.70;;
29370;SDS011;16357;52.188;7.838;2023-06-26T00:25:27;6.32;;;5.72;;
29370;SDS011;16357;52.188;7.838;2023-06-26T00:27:53;6.22;;;5.47;;
29370;SDS011;16357;52.188;7.838;2023-06-26T00:30:19;7.35;;;5.68;;
29370;SDS011;16357;52.188;7.838;2023-06-26T00:32:46;6.00;;;5.45;;
29370;SDS011;16357;52.188;7.838;2023-06-26T00:35:12;6.10;;;5.50;;
29370;SDS011;16357;52.188;7.838;2023-06-26T00:37:39;6.20;;;5.57;;
29370;SDS011;16357;52.188;7.838;2023-06-26T00:40:05;7.35;;;5.65;;
29370;SDS011;16357;52.188;7.838;2023-06-26T00:42:32;6.57;;;5.90;;
29370;SDS011;16357;52.188;7.838;2023-06-26T00:44:59;6.93;;;6.13;;
29370;SDS011;16357;52.188;7.838;2023-06-26T00:47:25;6.78;;;5.97;;
29370;SDS011;16357;52.188;7.838;2023-06-26T00:49:53;7.40;;;6.47;;
29370;SDS011;16357;52.188;7.838;2023-06-26T00:52:21;6.93;;;6.22;;
29370;SDS011;16357;52.188;7.838;2023-06-26T00:54:49;8.30;;;6.72;;
29370;SDS011;16357;52.188;7.838;2023-06-26T00:57:18;7.40;;;6.65;;
29370;SDS011;16357;52.188;7.838;2023-06-26T00:59:44;7.78;;;6.72;;
29370;SDS011;16357;52.188;7.838;2023-06-26T01:02:11;8.32;;;6.75;;
29370;SDS011;16357;52.188;7.838;2023-06-26T01:04:37;7.47;;;6.35;;
29370;SDS011;16357;52.188;7.838;2023-06-26T01:07:07;10.40;;;6.68;;
29370;SDS011;16357;52.188;7.838;2023-06-26T01:09:33;6.25;;;5.65;;
29370;SDS011;16357;52.188;7.838;2023-06-26T01:12:00;6.88;;;5.70;;
29370;SDS011;16357;52.188;7.838;2023-06-26T01:14:27;7.07;;;6.38;;
29370;SDS011;16357;52.188;7.838;2023-06-26T01:16:53;7.38;;;6.32;;
29370;SDS011;16357;52.188;7.838;2023-06-26T01:19:24;7.20;;;6.35;;
29370;SDS011;16357;52.188;7.838;2023-06-26T01:21:56;7.13;;;6.18;;
29370;SDS011;16357;52.188;7.838;2023-06-26T01:24:31;10.20;;;6.55;;
29370;SDS011;16357;52.188;7.838;2023-06-26T01:27:02;7.25;;;6.28;;
29370;SDS011;16357;52.188;7.838;2023-06-26T01:29:30;7.18;;;6.22;;
29370;SDS011;16357;52.188;7.838;2023-06-26T01:31:59;9.75;;;6.55;;
29370;SDS011;16357;52.188;7.838;2023-06-26T01:34:27;6.63;;;6.03;;
29370;SDS011;16357;52.188;7.838;2023-06-26T01:36:53;7.28;;;6.25;;
29370;SDS011;16357;52.188;7.838;2023-06-26T01:39:20;7.00;;;6.18;;
29370;SDS011;16357;52.188;7.838;2023-06-26T01:41:46;9.38;;;6.60;;
29370;SDS011;16357;52.188;7.838;2023-06-26T01:44:16;9.27;;;6.35;;
29370;SDS011;16357;52.188;7.838;2023-06-26T01:46:58;7.88;;;5.60;;
29370;SDS011;16357;52.188;7.838;2023-06-26T01:49:47;8.10;;;6.07;;
29370;SDS011;16357;52.188;7.838;2023-06-26T01:52:24;6.72;;;5.93;;
29370;SDS011;16357;52.188;7.838;2023-06-26T01:57:46;6.38;;;5.70;;
29370;SDS011;16357;52.188;7.838;2023-06-26T02:00:14;7.43;;;6.18;;
29370;SDS011;16357;52.188;7.838;2023-06-26T02:02:44;6.55;;;5.93;;
29370;SDS011;16357;52.188;7.838;2023-06-26T02:05:11;7.40;;;6.47;;
29370;SDS011;16357;52.188;7.838;2023-06-26T02:07:39;6.40;;;5.75;;
29370;SDS011;16357;52.188;7.838;2023-06-26T02:10:05;7.13;;;5.70;;
29370;SDS011;16357;52.188;7.838;2023-06-26T02:12:33;6.72;;;6.03;;
29370;SDS011;16357;52.188;7.838;2023-06-26T02:15:02;6.60;;;5.90;;
29370;SDS011;16357;52.188;7.838;2023-06-26T02:17:29;7.97;;;5.97;;
29370;SDS011;16357;52.188;7.838;2023-06-26T02:19:55;6.75;;;6.05;;
29370;SDS011;16357;52.188;7.838;2023-06-26T02:22:22;6.65;;;5.95;;
29370;SDS011;16357;52.188;7.838;2023-06-26T02:24:48;6.38;;;5.70;;
29370;SDS011;16357;52.188;7.838;2023-06-26T02:27:15;7.00;;;5.70;;
29370;SDS011;16357;52.188;7.838;2023-06-26T02:29:41;8.30;;;5.90;;
29370;SDS011;16357;52.188;7.838;2023-06-26T02:32:08;7.20;;;6.20;;
29370;SDS011;16357;52.188;7.838;2023-06-26T02:34:35;7.38;;;6.25;;
29370;SDS011;16357;52.188;7.838;2023-06-26T02:37:01;6.10;;;5.45;;
29370;SDS011;16357;52.188;7.838;2023-06-26T02:39:28;7.60;;;5.93;;
29370;SDS011;16357;52.188;7.838;2023-06-26T02:41:54;10.52;;;6.18;;
29370;SDS011;16357;52.188;7.838;2023-06-26T02:44:21;6.88;;;6.10;;
29370;SDS011;16357;52.188;7.838;2023-06-26T02:46:47;7.25;;;6.55;;
29370;SDS011;16357;52.188;7.838;2023-06-26T02:49:14;6.93;;;6.22;;
29370;SDS011;16357;52.188;7.838;2023-06-26T02:51:40;9.82;;;7.03;;
29370;SDS011;16357;52.188;7.838;2023-06-26T02:54:07;8.60;;;6.70;;
29370;SDS011;16357;52.188;7.838;2023-06-26T02:56:33;7.07;;;6.38;;
29370;SDS011;16357;52.188;7.838;2023-06-26T02:59:05;6.50;;;5.85;;
29370;SDS011;16357;52.188;7.838;2023-06-26T03:01:31;6.85;;;6.07;;
29370;SDS011;16357;52.188;7.838;2023-06-26T03:03:58;7.85;;;6.47;;
29370;SDS011;16357;52.188;7.838;2023-06-26T03:06:27;7.15;;;6.05;;
29370;SDS011;16357;52.188;7.838;2023-06-26T03:08:53;7.05;;;6.10;;
29370;SDS011;16357;52.188;7.838;2023-06-26T03:11:20;8.90;;;6.70;;
29370;SDS011;16357;52.188;7.838;2023-06-26T03:13:46;7.75;;;6.53;;
29370;SDS011;16357;52.188;7.838;2023-06-26T03:16:13;8.05;;;6.22;;
29370;SDS011;16357;52.188;7.838;2023-06-26T03:18:39;9.00;;;6.80;;
29370;SDS011;16357;52.188;7.838;2023-06-26T03:21:06;7.80;;;6.70;;
29370;SDS011;16357;52.188;7.838;2023-06-26T03:23:32;9.10;;;6.60;;
29370;SDS011;16357;52.188;7.838;2023-06-26T03:25:59;8.15;;;6.53;;
29370;SDS011;16357;52.188;7.838;2023-06-26T03:28:25;8.10;;;6.28;;
29370;SDS011;16357;52.188;7.838;2023-06-26T03:30:52;7.28;;;6.15;;
29370;SDS011;16357;52.188;7.838;2023-06-26T03:33:18;7.20;;;5.85;;
29370;SDS011;16357;52.188;7.838;2023-06-26T03:35:45;7.18;;;6.10;;
29370;SDS011;16357;52.188;7.838;2023-06-26T03:38:11;9.90;;;6.53;;
29370;SDS011;16357;52.188;7.838;2023-06-26T03:40:38;6.88;;;6.18;;
29370;SDS011;16357;52.188;7.838;2023-06-26T03:43:05;7.32;;;6.18;;
29370;SDS011;16357;52.188;7.838;2023-06-26T03:45:31;7.65;;;6.35;;
29370;SDS011;16357;52.188;7.838;2023-06-26T03:47:57;9.25;;;6.25;;
29370;SDS011;16357;52.188;7.838;2023-06-26T03:50:24;9.02;;;6.18;;
29370;SDS011;16357;52.188;7.838;2023-06-26T03:52:50;6.00;;;5.40;;
29370;SDS011;16357;52.188;7.838;2023-06-26T03:55:17;7.55;;;6.55;;
29370;SDS011;16357;52.188;7.838;2023-06-26T03:57:45;8.35;;;6.68;;
29370;SDS011;16357;52.188;7.838;2023-06-26T04:00:12;7.22;;;6.30;;
29370;SDS011;16357;52.188;7.838;2023-06-26T04:02:40;8.07;;;6.13;;
29370;SDS011;16357;52.188;7.838;2023-06-26T04:05:06;7.00;;;6.00;;
29370;SDS011;16357;52.188;7.838;2023-06-26T04:07:33;11.13;;;6.30;;
29370;SDS011;16357;52.188;7.838;2023-06-26T04:10:00;7.45;;;6.13;;
29370;SDS011;16357;52.188;7.838;2023-06-26T04:12:27;7.70;;;6.25;;
29370;SDS011;16357;52.188;7.838;2023-06-26T04:14:53;6.53;;;5.80;;
29370;SDS011;16357;52.188;7.838;2023-06-26T04:17:20;7.85;;;6.20;;
29370;SDS011;16357;52.188;7.838;2023-06-26T04:19:46;9.57;;;5.97;;
29370;SDS011;16357;52.188;7.838;2023-06-26T04:22:13;6.85;;;6.15;;
29370;SDS011;16357;52.188;7.838;2023-06-26T04:24:39;10.02;;;6.07;;
29370;SDS011;16357;52.188;7.838;2023-06-26T04:27:06;7.50;;;6.13;;
29370;SDS011;16357;52.188;7.838;2023-06-26T04:29:32;6.97;;;5.80;;
29370;SDS011;16357;52.188;7.838;2023-06-26T04:31:59;6.93;;;6.22;;
29370;SDS011;16357;52.188;7.838;2023-06-26T04:34:26;7.20;;;6.10;;
29370;SDS011;16357;52.188;7.838;2023-06-26T04:36:54;5.93;;;5.32;;
29370;SDS011;16357;52.188;7.838;2023-06-26T04:39:21;7.45;;;6.10;;
29370;SDS011;16357;52.188;7.838;2023-06-26T04:41:48;7.57;;;5.78;;
29370;SDS011;16357;52.188;7.838;2023-06-26T04:44:15;7.68;;;5.80;;
29370;SDS011;16357;52.188;7.838;2023-06-26T04:46:41;7.13;;;5.38;;
29370;SDS011;16357;52.188;7.838;2023-06-26T04:49:08;7.15;;;6.22;;
29370;SDS011;16357;52.188;7.838;2023-06-26T04:51:35;8.40;;;6.32;;
29370;SDS011;16357;52.188;7.838;2023-06-26T04:54:07;9.48;;;6.07;;
29370;SDS011;16357;52.188;7.838;2023-06-26T04:56:34;7.55;;;6.47;;
29370;SDS011;16357;52.188;7.838;2023-06-26T04:59:01;8.65;;;5.93;;
29370;SDS011;16357;52.188;7.838;2023-06-26T05:01:29;11.15;;;6.65;;
29370;SDS011;16357;52.188;7.838;2023-06-26T05:03:56;7.10;;;5.55;;
29370;SDS011;16357;52.188;7.838;2023-06-26T05:06:22;8.82;;;5.90;;
29370;SDS011;16357;52.188;7.838;2023-06-26T05:08:49;9.23;;;6.22;;
29370;SDS011;16357;52.188;7.838;2023-06-26T05:11:16;13.23;;;6.63;;
29370;SDS011;16357;52.188;7.838;2023-06-26T05:13:45;7.63;;;6.10;;
29370;SDS011;16357;52.188;7.838;2023-06-26T05:16:11;8.95;;;6.32;;
29370;SDS011;16357;52.188;7.838;2023-06-26T05:18:38;6.88;;;6.13;;
29370;SDS011;16357;52.188;7.838;2023-06-26T05:21:05;8.50;;;6.47;;
29370;SDS011;16357;52.188;7.838;2023-06-26T05:23:32;9.00;;;6.57;;
29370;SDS011;16357;52.188;7.838;2023-06-26T05:26:01;8.18;;;6.53;;
29370;SDS011;16357;52.188;7.838;2023-06-26T05:28:29;9.02;;;6.88;;
29370;SDS011;16357;52.188;7.838;2023-06-26T05:30:57;8.02;;;6.47;;
29370;SDS011;16357;52.188;7.838;2023-06-26T05:33:26;8.25;;;6.65;;
29370;SDS011;16357;52.188;7.838;2023-06-26T05:35:53;7.47;;;6.43;;
29370;SDS011;16357;52.188;7.838;2023-06-26T05:38:20;6.93;;;6.22;;
29370;SDS011;16357;52.188;7.838;2023-06-26T05:40:47;10.38;;;6.82;;
29370;SDS011;16357;52.188;7.838;2023-06-26T05:43:14;9.00;;;6.78;;
29370;SDS011;16357;52.188;7.838;2023-06-26T05:45:41;8.45;;;6.63;;
29370;SDS011;16357;52.188;7.838;2023-06-26T05:48:07;7.80;;;6.68;;
29370;SDS011;16357;52.188;7.838;2023-06-26T05:50:34;8.35;;;6.60;;
29370;SDS011;16357;52.188;7.838;2023-06-26T05:53:02;9.48;;;7.32;;
29370;SDS011;16357;52.188;7.838;2023-06-26T05:55:31;8.80;;;7.03;;
29370;SDS011;16357;52.188;7.838;2023-06-26T05:57:58;7.93;;;6.97;;
29370;SDS011;16357;52.188;7.838;2023-06-26T06:00:28;11.95;;;6.72;;
29370;SDS011;16357;52.188;7.838;2023-06-26T06:02:55;10.52;;;6.90;;
29370;SDS011;16357;52.188;7.838;2023-06-26T06:05:21;9.40;;;7.57;;
29370;SDS011;16357;52.188;7.838;2023-06-26T06:07:49;9.65;;;8.00;;
29370;SDS011;16357;52.188;7.838;2023-06-26T06:10:15;8.95;;;7.20;;
29370;SDS011;16357;52.188;7.838;2023-06-26T06:12:42;9.98;;;7.47;;
29370;SDS011;16357;52.188;7.838;2023-06-26T06:15:09;13.35;;;8.38;;
29370;SDS011;16357;52.188;7.838;2023-06-26T06:17:35;12.07;;;8.15;;
29370;SDS011;16357;52.188;7.838;2023-06-26T06:20:02;12.02;;;7.88;;
29370;SDS011;16357;52.188;7.838;2023-06-26T06:22:29;10.90;;;7.78;;
29370;SDS011;16357;52.188;7.838;2023-06-26T06:24:56;11.05;;;8.30;;
29370;SDS011;16357;52.188;7.838;2023-06-26T06:27:22;10.60;;;7.80;;
29370;SDS011;16357;52.188;7.838;2023-06-26T06:29:49;10.50;;;7.95;;
29370;SDS011;16357;52.188;7.838;2023-06-26T06:32:15;10.45;;;7.90;;
29370;SDS011;16357;52.188;7.838;2023-06-26T06:34:42;9.57;;;7.97;;
29370;SDS011;16357;52.188;7.838;2023-06-26T06:37:08;9.88;;;7.60;;
29370;SDS011;16357;52.188;7.838;2023-06-26T06:39:35;8.52;;;7.50;;
29370;SDS011;16357;52.188;7.838;2023-06-26T06:42:01;10.77;;;7.28;;
29370;SDS011;16357;52.188;7.838;2023-06-26T06:44:28;8.93;;;7.82;;
29370;SDS011;16357;52.188;7.838;2023-06-26T06:46:56;10.18;;;7.68;;
29370;SDS011;16357;52.188;7.838;2023-06-26T06:49:23;14.25;;;7.78;;
29370;SDS011;16357;52.188;7.838;2023-06-26T06:51:49;10.30;;;7.63;;
29370;SDS011;16357;52.188;7.838;2023-06-26T06:54:16;9.85;;;8.15;;
29370;SDS011;16357;52.188;7.838;2023-06-26T06:56:43;9.07;;;7.05;;
29370;SDS011;16357;52.188;7.838;2023-06-26T06:59:09;8.90;;;7.40;;
29370;SDS011;16357;52.188;7.838;2023-06-26T07:01:36;10.30;;;7.10;;
29370;SDS011;16357;52.188;7.838;2023-06-26T07:04:02;9.45;;;7.10;;
29370;SDS011;16357;52.188;7.838;2023-06-26T07:06:30;7.72;;;5.97;;
29370;SDS011;16357;52.188;7.838;2023-06-26T07:08:57;7.68;;;6.47;;
29370;SDS011;16357;52.188;7.838;2023-06-26T07:11:23;10.57;;;6.53;;
29370;SDS011;16357;52.188;7.838;2023-06-26T07:13:49;8.18;;;5.75;;
29370;SDS011;16357;52.188;7.838;2023-06-26T07:16:16;8.48;;;5.85;;
29370;SDS011;16357;52.188;7.838;2023-06-26T07:18:42;7.05;;;5.53;;
29370;SDS011;16357;52.188;7.838;2023-06-26T07:21:10;7.47;;;5.50;;
29370;SDS011;16357;52.188;7.838;2023-06-26T07:23:36;9.65;;;5.28;;
29370;SDS011;16357;52.188;7.838;2023-06-26T07:26:03;6.53;;;4.60;;
29370;SDS011;16357;52.188;7.838;2023-06-26T07:28:29;8.95;;;5.45;;
29370;SDS011;16357;52.188;7.838;2023-06-26T07:30:56;8.75;;;4.93;;
29370;SDS011;16357;52.188;7.838;2023-06-26T07:33:22;9.32;;;4.57;;
29370;SDS011;16357;52.188;7.838;2023-06-26T07:35:49;7.63;;;4.55;;
29370;SDS011;16357;52.188;7.838;2023-06-26T07:38:15;10.25;;;4.65;;
29370;SDS011;16357;52.188;7.838;2023-06-26T07:40:42;8.23;;;4.53;;
29370;SDS011;16357;52.188;7.838;2023-06-26T07:43:08;9.55;;;5.47;;
29370;SDS011;16357;52.188;7.838;2023-06-26T07:45:34;8.32;;;5.22;;
29370;SDS011;16357;52.188;7.838;2023-06-26T07:48:01;8.70;;;4.75;;
29370;SDS011;16357;52.188;7.838;2023-06-26T07:50:28;10.20;;;4.95;;
29370;SDS011;16357;52.188;7.838;2023-06-26T07:52:54;8.63;;;4.82;;
29370;SDS011;16357;52.188;7.838;2023-06-26T07:55:21;8.15;;;4.55;;
29370;SDS011;16357;52.188;7.838;2023-06-26T07:57:48;8.63;;;4.53;;
29370;SDS011;16357;52.188;7.838;2023-06-26T08:00:16;10.90;;;5.05;;
29370;SDS011;16357;52.188;7.838;2023-06-26T08:02:43;7.93;;;4.78;;
29370;SDS011;16357;52.188;7.838;2023-06-26T08:05:09;6.57;;;4.50;;
29370;SDS011;16357;52.188;7.838;2023-06-26T08:07:36;8.05;;;4.45;;
29370;SDS011;16357;52.188;7.838;2023-06-26T08:10:03;12.15;;;5.07;;
29370;SDS011;16357;52.188;7.838;2023-06-26T08:12:29;7.75;;;4.53;;
29370;SDS011;16357;52.188;7.838;2023-06-26T08:14:56;9.52;;;4.80;;
29370;SDS011;16357;52.188;7.838;2023-06-26T08:17:22;9.30;;;5.00;;
29370;SDS011;16357;52.188;7.838;2023-06-26T08:19:49;10.32;;;4.75;;
29370;SDS011;16357;52.188;7.838;2023-06-26T08:22:15;9.15;;;4.85;;
29370;SDS011;16357;52.188;7.838;2023-06-26T08:24:42;8.50;;;4.45;;
29370;SDS011;16357;52.188;7.838;2023-06-26T08:27:08;12.07;;;5.22;;
29370;SDS011;16357;52.188;7.838;2023-06-26T08:29:35;6.90;;;4.35;;
29370;SDS011;16357;52.188;7.838;2023-06-26T08:32:01;9.80;;;4.65;;
29370;SDS011;16357;52.188;7.838;2023-06-26T08:34:28;8.90;;;5.07;;
29370;SDS011;16357;52.188;7.838;2023-06-26T08:36:54;7.32;;;5.10;;
29370;SDS011;16357;52.188;7.838;2023-06-26T08:39:21;7.93;;;4.88;;
29370;SDS011;16357;52.188;7.838;2023-06-26T08:41:47;8.68;;;5.00;;
29370;SDS011;16357;52.188;7.838;2023-06-26T08:44:14;10.55;;;5.38;;
29370;SDS011;16357;52.188;7.838;2023-06-26T08:46:41;9.68;;;4.95;;
29370;SDS011;16357;52.188;7.838;2023-06-26T08:51:57;7.82;;;5.20;;
29370;SDS011;16357;52.188;7.838;2023-06-26T08:54:31;8.43;;;4.53;;
29370;SDS011;16357;52.188;7.838;2023-06-26T08:57:09;8.27;;;4.75;;
29370;SDS011;16357;52.188;7.838;2023-06-26T08:59:36;14.35;;;4.90;;
29370;SDS011;16357;52.188;7.838;2023-06-26T09:02:03;8.93;;;4.78;;
29370;SDS011;16357;52.188;7.838;2023-06-26T09:04:30;7.45;;;4.35;;
29370;SDS011;16357;52.188;7.838;2023-06-26T09:06:56;9.63;;;4.50;;
29370;SDS011;16357;52.188;7.838;2023-06-26T09:09:23;7.38;;;4.20;;
29370;SDS011;16357;52.188;7.838;2023-06-26T09:11:49;9.18;;;4.50;;
29370;SDS011;16357;52.188;7.838;2023-06-26T09:14:16;8.25;;;4.40;;
29370;SDS011;16357;52.188;7.838;2023-06-26T09:16:43;7.97;;;4.47;;
29370;SDS011;16357;52.188;7.838;2023-06-26T09:19:10;5.30;;;3.95;;
29370;SDS011;16357;52.188;7.838;2023-06-26T09:21:40;10.45;;;4.32;;
29370;SDS011;16357;52.188;7.838;2023-06-26T09:24:07;7.95;;;4.03;;
29370;SDS011;16357;52.188;7.838;2023-06-26T09:26:37;6.18;;;4.10;;
29370;SDS011;16357;52.188;7.838;2023-06-26T09:29:06;9.93;;;3.40;;
29370;SDS011;16357;52.188;7.838;2023-06-26T09:31:33;5.63;;;3.53;;
29370;SDS011;16357;52.188;7.838;2023-06-26T09:34:07;6.90;;;3.33;;
29370;SDS011;16357;52.188;7.838;2023-06-26T09:36:34;6.20;;;3.38;;
29370;SDS011;16357;52.188;7.838;2023-06-26T09:39:06;6.10;;;3.40;;
29370;SDS011;16357;52.188;7.838;2023-06-26T09:41:37;5.32;;;2.78;;
29370;SDS011;16357;52.188;7.838;2023-06-26T09:44:05;5.80;;;3.28;;
29370;SDS011;16357;52.188;7.838;2023-06-26T09:46:31;4.18;;;2.90;;
29370;SDS011;16357;52.188;7.838;2023-06-26T09:51:30;4.25;;;2.60;;
29370;SDS011;16357;52.188;7.838;2023-06-26T09:53:58;2.92;;;2.15;;
29370;SDS011;16357;52.188;7.838;2023-06-26T09:56:26;3.70;;;2.47;;
29370;SDS011;16357;52.188;7.838;2023-06-26T09:58:57;4.35;;;2.20;;
29370;SDS011;16357;52.188;7.838;2023-06-26T10:01:28;5.15;;;2.45;;
29370;SDS011;16357;52.188;7.838;2023-06-26T10:03:56;3.17;;;2.20;;
29370;SDS011;16357;52.188;7.838;2023-06-26T10:06:24;3.65;;;2.47;;
29370;SDS011;16357;52.188;7.838;2023-06-26T10:08:56;2.28;;;1.85;;
29370;SDS011;16357;52.188;7.838;2023-06-26T10:11:24;4.78;;;2.15;;
29370;SDS011;16357;52.188;7.838;2023-06-26T10:13:56;3.03;;;2.03;;
29370;SDS011;16357;52.188;7.838;2023-06-26T10:16:41;2.30;;;1.80;;
29370;SDS011;16357;52.188;7.838;2023-06-26T10:19:10;2.85;;;1.73;;
29370;SDS011;16357;52.188;7.838;2023-06-26T10:21:39;3.80;;;2.53;;
29370;SDS011;16357;52.188;7.838;2023-06-26T10:24:07;3.47;;;1.98;;
29370;SDS011;16357;52.188;7.838;2023-06-26T10:26:37;3.03;;;1.98;;
29370;SDS011;16357;52.188;7.838;2023-06-26T10:29:07;3.83;;;2.10;;
29370;SDS011;16357;52.188;7.838;2023-06-26T10:31:34;5.53;;;1.90;;
29370;SDS011;16357;52.188;7.838;2023-06-26T10:34:03;3.38;;;1.75;;
29370;SDS011;16357;52.188;7.838;2023-06-26T10:36:30;5.93;;;1.98;;
29370;SDS011;16357;52.188;7.838;2023-06-26T10:38:58;2.33;;;1.63;;
29370;SDS011;16357;52.188;7.838;2023-06-26T10:41:37;7.47;;;2.00;;
29370;SDS011;16357;52.188;7.838;2023-06-26T10:44:22;1.92;;;1.60;;
29370;SDS011;16357;52.188;7.838;2023-06-26T10:49:16;3.28;;;1.67;;
29370;SDS011;16357;52.188;7.838;2023-06-26T10:51:46;4.78;;;1.70;;
29370;SDS011;16357;52.188;7.838;2023-06-26T10:54:17;2.75;;;1.70;;
29370;SDS011;16357;52.188;7.838;2023-06-26T10:56:45;4.40;;;1.80;;
29370;SDS011;16357;52.188;7.838;2023-06-26T11:01:57;3.60;;;1.90;;
29370;SDS011;16357;52.188;7.838;2023-06-26T11:10:02;6.35;;;2.17;;
29370;SDS011;16357;52.188;7.838;2023-06-26T11:12:44;4.35;;;1.98;;
29370;SDS011;16357;52.188;7.838;2023-06-26T11:15:15;2.95;;;1.90;;
29370;SDS011;16357;52.188;7.838;2023-06-26T11:17:43;3.08;;;1.90;;
29370;SDS011;16357;52.188;7.838;2023-06-26T11:20:12;3.17;;;2.00;;
29370;SDS011;16357;52.188;7.838;2023-06-26T11:22:40;4.35;;;2.17;;
29370;SDS011;16357;52.188;7.838;2023-06-26T11:25:08;3.17;;;1.98;;
29370;SDS011;16357;52.188;7.838;2023-06-26T11:27:42;5.80;;;1.90;;
29370;SDS011;16357;52.188;7.838;2023-06-26T11:30:10;4.57;;;2.20;;
29370;SDS011;16357;52.188;7.838;2023-06-26T11:32:38;2.47;;;1.77;;
29370;SDS011;16357;52.188;7.838;2023-06-26T11:35:05;3.10;;;1.90;;
29370;SDS011;16357;52.188;7.838;2023-06-26T11:37:32;4.90;;;2.17;;
29370;SDS011;16357;52.188;7.838;2023-06-26T11:39:59;3.90;;;2.00;;
29370;SDS011;16357;52.188;7.838;2023-06-26T11:42:26;2.83;;;1.80;;
29370;SDS011;16357;52.188;7.838;2023-06-26T11:44:53;7.38;;;2.42;;
29370;SDS011;16357;52.188;7.838;2023-06-26T11:47:21;3.47;;;1.92;;
29370;SDS011;16357;52.188;7.838;2023-06-26T11:49:49;2.63;;;2.00;;
29370;SDS011;16357;52.188;7.838;2023-06-26T11:52:16;3.22;;;2.03;;
29370;SDS011;16357;52.188;7.838;2023-06-26T11:54:42;5.88;;;1.95;;
29370;SDS011;16357;52.188;7.838;2023-06-26T11:57:13;2.00;;;1.58;;
29370;SDS011;16357;52.188;7.838;2023-06-26T11:59:40;5.85;;;1.98;;
29370;SDS011;16357;52.188;7.838;2023-06-26T12:02:08;4.63;;;1.85;;
29370;SDS011;16357;52.188;7.838;2023-06-26T12:04:37;3.25;;;2.20;;
29370;SDS011;16357;52.188;7.838;2023-06-26T12:07:06;2.88;;;1.73;;
29370;SDS011;16357;52.188;7.838;2023-06-26T12:09:45;3.22;;;1.85;;
29370;SDS011;16357;52.188;7.838;2023-06-26T12:12:14;3.45;;;1.65;;
29370;SDS011;16357;52.188;7.838;2023-06-26T12:14:42;2.60;;;1.63;;
29370;SDS011;16357;52.188;7.838;2023-06-26T12:17:10;4.15;;;1.88;;
29370;SDS011;16357;52.188;7.838;2023-06-26T12:19:38;2.45;;;1.88;;
29370;SDS011;16357;52.188;7.838;2023-06-26T12:22:14;4.85;;;1.90;;
29370;SDS011;16357;52.188;7.838;2023-06-26T12:24:41;2.90;;;2.00;;
29370;SDS011;16357;52.188;7.838;2023-06-26T12:27:09;4.00;;;1.92;;
29370;SDS011;16357;52.188;7.838;2023-06-26T12:29:38;4.50;;;1.88;;
29370;SDS011;16357;52.188;7.838;2023-06-26T12:32:19;4.63;;;2.17;;
29370;SDS011;16357;52.188;7.838;2023-06-26T12:34:50;4.72;;;1.85;;
29370;SDS011;16357;52.188;7.838;2023-06-26T12:37:17;4.57;;;1.90;;
29370;SDS011;16357;52.188;7.838;2023-06-26T12:39:53;7.85;;;2.38;;
29370;SDS011;16357;52.188;7.838;2023-06-26T12:42:27;3.55;;;2.03;;
29370;SDS011;16357;52.188;7.838;2023-06-26T12:44:54;5.18;;;1.85;;
29370;SDS011;16357;52.188;7.838;2023-06-26T12:47:26;4.97;;;2.20;;
29370;SDS011;16357;52.188;7.838;2023-06-26T12:49:54;4.40;;;2.00;;
29370;SDS011;16357;52.188;7.838;2023-06-26T12:52:21;3.47;;;2.00;;
29370;SDS011;16357;52.188;7.838;2023-06-26T12:54:52;3.33;;;1.83;;
29370;SDS011;16357;52.188;7.838;2023-06-26T12:57:20;4.60;;;1.85;;
29370;SDS011;16357;52.188;7.838;2023-06-26T12:59:46;5.78;;;1.67;;
29370;SDS011;16357;52.188;7.838;2023-06-26T13:02:13;5.97;;;1.85;;
29370;SDS011;16357;52.188;7.838;2023-06-26T13:04:40;3.92;;;1.75;;
29370;SDS011;16357;52.188;7.838;2023-06-26T13:07:07;4.88;;;2.00;;
29370;SDS011;16357;52.188;7.838;2023-06-26T13:09:34;4.07;;;1.88;;
29370;SDS011;16357;52.188;7.838;2023-06-26T13:12:03;2.83;;;1.80;;
29370;SDS011;16357;52.188;7.838;2023-06-26T13:14:49;3.83;;;1.88;;
29370;SDS011;16357;52.188;7.838;2023-06-26T13:17:15;3.70;;;1.75;;
29370;SDS011;16357;52.188;7.838;2023-06-26T13:19:42;3.13;;;1.50;;
29370;SDS011;16357;52.188;7.838;2023-06-26T13:22:09;5.57;;;2.05;;
29370;SDS011;16357;52.188;7.838;2023-06-26T13:24:36;5.75;;;1.70;;
29370;SDS011;16357;52.188;7.838;2023-06-26T13:27:02;4.28;;;1.48;;
29370;SDS011;16357;52.188;7.838;2023-06-26T13:29:29;2.63;;;1.45;;
29370;SDS011;16357;52.188;7.838;2023-06-26T13:31:55;3.10;;;1.48;;
29370;SDS011;16357;52.188;7.838;2023-06-26T13:34:23;4.32;;;1.55;;
29370;SDS011;16357;52.188;7.838;2023-06-26T13:36:50;4.88;;;1.40;;
29370;SDS011;16357;52.188;7.838;2023-06-26T13:39:17;4.38;;;1.50;;
29370;SDS011;16357;52.188;7.838;2023-06-26T13:41:44;2.92;;;1.20;;
29370;SDS011;16357;52.188;7.838;2023-06-26T13:44:11;2.40;;;1.48;;
29370;SDS011;16357;52.188;7.838;2023-06-26T13:46:56;3.92;;;1.23;;
29370;SDS011;16357;52.188;7.838;2023-06-26T13:49:22;2.42;;;1.23;;
29370;SDS011;16357;52.188;7.838;2023-06-26T13:51:49;4.68;;;1.50;;
29370;SDS011;16357;52.188;7.838;2023-06-26T13:54:15;5.57;;;1.55;;
29370;SDS011;16357;52.188;7.838;2023-06-26T13:56:41;2.75;;;1.40;;
29370;SDS011;16357;52.188;7.838;2023-06-26T13:59:08;3.50;;;1.50;;
29370;SDS011;16357;52.188;7.838;2023-06-26T14:01:34;3.85;;;1.30;;
29370;SDS011;16357;52.188;7.838;2023-06-26T14:04:01;3.42;;;1.27;;
29370;SDS011;16357;52.188;7.838;2023-06-26T14:06:27;3.35;;;1.40;;
29370;SDS011;16357;52.188;7.838;2023-06-26T14:08:56;2.35;;;1.33;;
29370;SDS011;16357;52.188;7.838;2023-06-26T14:11:22;2.53;;;1.42;;
29370;SDS011;16357;52.188;7.838;2023-06-26T14:13:49;2.85;;;1.70;;
29370;SDS011;16357;52.188;7.838;2023-06-26T14:16:15;3.05;;;1.50;;
29370;SDS011;16357;52.188;7.838;2023-06-26T14:18:45;1.95;;;1.23;;
29370;SDS011;16357;52.188;7.838;2023-06-26T14:21:12;2.22;;;1.50;;
29370;SDS011;16357;52.188;7.838;2023-06-26T14:23:38;6.20;;;1.10;;
29370;SDS011;16357;52.188;7.838;2023-06-26T14:26:05;3.22;;;1.20;;
29370;SDS011;16357;52.188;7.838;2023-06-26T14:28:31;2.20;;;1.25;;
29370;SDS011;16357;52.188;7.838;2023-06-26T14:30:58;2.03;;;1.13;;
29370;SDS011;16357;52.188;7.838;2023-06-26T14:33:24;2.72;;;1.38;;
29370;SDS011;16357;52.188;7.838;2023-06-26T14:35:51;2.10;;;1.20;;
29370;SDS011;16357;52.188;7.838;2023-06-26T14:38:17;3.22;;;1.20;;
29370;SDS011;16357;52.188;7.838;2023-06-26T14:40:44;3.05;;;1.30;;
29370;SDS011;16357;52.188;7.838;2023-06-26T14:43:11;9.40;;;1.33;;
29370;SDS011;16357;52.188;7.838;2023-06-26T14:45:38;2.95;;;1.10;;
29370;SDS011;16357;52.188;7.838;2023-06-26T14:48:05;3.75;;;1.00;;
29370;SDS011;16357;52.188;7.838;2023-06-26T14:50:31;3.15;;;1.38;;
29370;SDS011;16357;52.188;7.838;2023-06-26T14:52:58;2.40;;;1.00;;
29370;SDS011;16357;52.188;7.838;2023-06-26T14:55:25;2.22;;;1.30;;
29370;SDS011;16357;52.188;7.838;2023-06-26T14:57:51;2.00;;;1.02;;
29370;SDS011;16357;52.188;7.838;2023-06-26T15:00:18;1.45;;;0.88;;
29370;SDS011;16357;52.188;7.838;2023-06-26T15:02:45;2.33;;;1.20;;
29370;SDS011;16357;52.188;7.838;2023-06-26T15:05:12;1.52;;;1.08;;
29370;SDS011;16357;52.188;7.838;2023-06-26T15:07:38;3.30;;;1.30;;